sensor_id;sensor_type;location;lat;lon;timestamp;P1;durP1;ratioP1;P2;durP2;ratioP2
42030;SDS011;27709;52.036;5.906;2023-10-08T00:02:22;11.55;;;3.95;;
42030;SDS011;27709;52.036;5.906;2023-10-08T00:04:52;12.85;;;3.55;;
42030;SDS011;27709;52.036;5.906;2023-10-08T00:07:22;10.23;;;3.72;;
42030;SDS011;27709;52.036;5.906;2023-10-08T00:09:52;13.50;;;3.70;;
42030;SDS011;27709;52.036;5.906;2023-10-08T00:12:18;14.00;;;3.58;;
42030;SDS011;27709;52.036;5.906;2023-10-08T00:14:46;9.90;;;3.70;;
42030;SDS011;27709;52.036;5.906;2023-10-08T00:17:15;14.82;;;3.35;;
42030;SDS011;27709;52.036;5.906;2023-10-08T00:19:42;11.40;;;3.20;;
42030;SDS011;27709;52.036;5.906;2023-10-08T00:22:09;14.93;;;3.97;;
42030;SDS011;27709;52.036;5.906;2023-10-08T00:24:44;10.05;;;3.20;;
42030;SDS011;27709;52.036;5.906;2023-10-08T00:27:19;15.80;;;4.15;;
42030;SDS011;27709;52.036;5.906;2023-10-08T00:29:46;14.00;;;3.47;;
42030;SDS011;27709;52.036;5.906;2023-10-08T00:32:15;11.70;;;3.47;;
42030;SDS011;27709;52.036;5.906;2023-10-08T00:34:49;11.07;;;3.53;;
42030;SDS011;27709;52.036;5.906;2023-10-08T00:37:14;12.45;;;3.03;;
42030;SDS011;27709;52.036;5.906;2023-10-08T00:39:41;10.10;;;3.30;;
42030;SDS011;27709;52.036;5.906;2023-10-08T00:42:07;13.93;;;4.05;;
42030;SDS011;27709;52.036;5.906;2023-10-08T00:44:37;13.57;;;3.67;;
42030;SDS011;27709;52.036;5.906;2023-10-08T00:47:16;13.88;;;3.92;;
42030;SDS011;27709;52.036;5.906;2023-10-08T00:49:42;13.68;;;3.83;;
42030;SDS011;27709;52.036;5.906;2023-10-08T00:52:11;11.60;;;3.38;;
42030;SDS011;27709;52.036;5.906;2023-10-08T00:54:38;13.77;;;3.65;;
42030;SDS011;27709;52.036;5.906;2023-10-08T00:57:27;12.57;;;3.58;;
42030;SDS011;27709;52.036;5.906;2023-10-08T00:59:54;10.15;;;3.42;;
42030;SDS011;27709;52.036;5.906;2023-10-08T01:02:25;14.48;;;4.13;;
42030;SDS011;27709;52.036;5.906;2023-10-08T01:04:58;11.05;;;3.95;;
42030;SDS011;27709;52.036;5.906;2023-10-08T01:07:25;10.80;;;3.53;;
42030;SDS011;27709;52.036;5.906;2023-10-08T01:09:52;12.25;;;3.70;;
42030;SDS011;27709;52.036;5.906;2023-10-08T01:12:24;12.20;;;4.13;;
42030;SDS011;27709;52.036;5.906;2023-10-08T01:14:58;15.60;;;4.05;;
42030;SDS011;27709;52.036;5.906;2023-10-08T01:17:38;14.10;;;4.35;;
42030;SDS011;27709;52.036;5.906;2023-10-08T01:20:13;15.63;;;4.68;;
42030;SDS011;27709;52.036;5.906;2023-10-08T01:23:10;13.25;;;3.92;;
42030;SDS011;27709;52.036;5.906;2023-10-08T01:25:46;11.90;;;4.03;;
42030;SDS011;27709;52.036;5.906;2023-10-08T01:28:17;15.20;;;4.10;;
42030;SDS011;27709;52.036;5.906;2023-10-08T01:30:51;10.70;;;3.85;;
42030;SDS011;27709;52.036;5.906;2023-10-08T01:33:21;11.05;;;3.95;;
42030;SDS011;27709;52.036;5.906;2023-10-08T01:35:47;11.25;;;3.72;;
42030;SDS011;27709;52.036;5.906;2023-10-08T01:38:15;16.70;;;4.35;;
42030;SDS011;27709;52.036;5.906;2023-10-08T01:40:41;15.75;;;4.30;;
42030;SDS011;27709;52.036;5.906;2023-10-08T01:43:08;15.80;;;4.18;;
42030;SDS011;27709;52.036;5.906;2023-10-08T01:45:35;16.38;;;4.25;;
42030;SDS011;27709;52.036;5.906;2023-10-08T01:48:06;14.32;;;3.88;;
42030;SDS011;27709;52.036;5.906;2023-10-08T01:50:34;10.90;;;3.40;;
42030;SDS011;27709;52.036;5.906;2023-10-08T01:53:00;15.75;;;4.40;;
42030;SDS011;27709;52.036;5.906;2023-10-08T01:55:25;11.80;;;3.70;;
42030;SDS011;27709;52.036;5.906;2023-10-08T01:57:51;12.65;;;3.60;;
42030;SDS011;27709;52.036;5.906;2023-10-08T02:00:18;12.13;;;3.88;;
42030;SDS011;27709;52.036;5.906;2023-10-08T02:02:49;12.38;;;3.88;;
42030;SDS011;27709;52.036;5.906;2023-10-08T02:05:15;11.30;;;3.53;;
42030;SDS011;27709;52.036;5.906;2023-10-08T02:07:43;13.48;;;4.13;;
42030;SDS011;27709;52.036;5.906;2023-10-08T02:10:10;12.80;;;3.80;;
42030;SDS011;27709;52.036;5.906;2023-10-08T02:12:39;11.55;;;3.58;;
42030;SDS011;27709;52.036;5.906;2023-10-08T02:15:06;13.38;;;4.13;;
42030;SDS011;27709;52.036;5.906;2023-10-08T02:17:33;12.07;;;4.20;;
42030;SDS011;27709;52.036;5.906;2023-10-08T02:19:59;14.32;;;4.80;;
42030;SDS011;27709;52.036;5.906;2023-10-08T02:22:26;13.10;;;3.88;;
42030;SDS011;27709;52.036;5.906;2023-10-08T02:24:52;12.95;;;4.55;;
42030;SDS011;27709;52.036;5.906;2023-10-08T02:27:18;13.95;;;3.72;;
42030;SDS011;27709;52.036;5.906;2023-10-08T02:29:45;10.18;;;4.22;;
42030;SDS011;27709;52.036;5.906;2023-10-08T02:32:10;13.13;;;3.88;;
42030;SDS011;27709;52.036;5.906;2023-10-08T02:34:36;14.45;;;4.03;;
42030;SDS011;27709;52.036;5.906;2023-10-08T02:37:01;13.93;;;4.35;;
42030;SDS011;27709;52.036;5.906;2023-10-08T02:39:30;13.02;;;4.03;;
42030;SDS011;27709;52.036;5.906;2023-10-08T02:41:56;12.23;;;4.22;;
42030;SDS011;27709;52.036;5.906;2023-10-08T02:44:25;9.82;;;3.83;;
42030;SDS011;27709;52.036;5.906;2023-10-08T02:46:52;11.80;;;4.13;;
42030;SDS011;27709;52.036;5.906;2023-10-08T02:49:18;12.10;;;4.20;;
42030;SDS011;27709;52.036;5.906;2023-10-08T02:51:49;12.45;;;4.40;;
42030;SDS011;27709;52.036;5.906;2023-10-08T02:54:16;14.45;;;4.25;;
42030;SDS011;27709;52.036;5.906;2023-10-08T02:56:48;14.77;;;4.28;;
42030;SDS011;27709;52.036;5.906;2023-10-08T02:59:16;14.38;;;4.20;;
42030;SDS011;27709;52.036;5.906;2023-10-08T03:01:43;12.25;;;4.38;;
42030;SDS011;27709;52.036;5.906;2023-10-08T03:04:09;14.18;;;4.28;;
42030;SDS011;27709;52.036;5.906;2023-10-08T03:06:47;12.60;;;4.20;;
42030;SDS011;27709;52.036;5.906;2023-10-08T03:09:15;16.65;;;4.90;;
42030;SDS011;27709;52.036;5.906;2023-10-08T03:11:45;13.25;;;4.07;;
42030;SDS011;27709;52.036;5.906;2023-10-08T03:14:12;14.18;;;4.55;;
42030;SDS011;27709;52.036;5.906;2023-10-08T03:16:42;11.70;;;4.05;;
42030;SDS011;27709;52.036;5.906;2023-10-08T03:19:07;13.02;;;4.13;;
42030;SDS011;27709;52.036;5.906;2023-10-08T03:21:33;11.80;;;4.32;;
42030;SDS011;27709;52.036;5.906;2023-10-08T03:24:01;14.23;;;4.38;;
42030;SDS011;27709;52.036;5.906;2023-10-08T03:26:37;13.55;;;4.18;;
42030;SDS011;27709;52.036;5.906;2023-10-08T03:29:13;10.10;;;3.95;;
42030;SDS011;27709;52.036;5.906;2023-10-08T03:31:41;13.30;;;3.97;;
42030;SDS011;27709;52.036;5.906;2023-10-08T03:34:17;12.88;;;4.40;;
42030;SDS011;27709;52.036;5.906;2023-10-08T03:36:44;15.70;;;4.30;;
42030;SDS011;27709;52.036;5.906;2023-10-08T03:39:11;10.68;;;3.85;;
42030;SDS011;27709;52.036;5.906;2023-10-08T03:41:40;12.02;;;3.80;;
42030;SDS011;27709;52.036;5.906;2023-10-08T03:44:07;9.90;;;3.90;;
42030;SDS011;27709;52.036;5.906;2023-10-08T03:46:42;13.13;;;4.43;;
42030;SDS011;27709;52.036;5.906;2023-10-08T03:49:14;13.85;;;4.90;;
42030;SDS011;27709;52.036;5.906;2023-10-08T03:52:00;10.88;;;4.30;;
42030;SDS011;27709;52.036;5.906;2023-10-08T03:54:27;12.43;;;4.32;;
42030;SDS011;27709;52.036;5.906;2023-10-08T03:56:59;11.95;;;4.35;;
42030;SDS011;27709;52.036;5.906;2023-10-08T03:59:26;10.98;;;4.15;;
42030;SDS011;27709;52.036;5.906;2023-10-08T04:02:01;15.60;;;4.40;;
42030;SDS011;27709;52.036;5.906;2023-10-08T04:05:06;13.07;;;4.35;;
42030;SDS011;27709;52.036;5.906;2023-10-08T04:07:44;12.57;;;4.43;;
42030;SDS011;27709;52.036;5.906;2023-10-08T04:10:29;15.13;;;4.53;;
42030;SDS011;27709;52.036;5.906;2023-10-08T04:13:03;18.75;;;6.75;;
42030;SDS011;27709;52.036;5.906;2023-10-08T04:15:33;16.38;;;6.05;;
42030;SDS011;27709;52.036;5.906;2023-10-08T04:18:06;15.75;;;5.55;;
42030;SDS011;27709;52.036;5.906;2023-10-08T04:20:32;12.38;;;5.10;;
42030;SDS011;27709;52.036;5.906;2023-10-08T04:23:04;10.95;;;4.15;;
42030;SDS011;27709;52.036;5.906;2023-10-08T04:25:43;14.90;;;4.65;;
42030;SDS011;27709;52.036;5.906;2023-10-08T04:28:09;12.02;;;3.95;;
42030;SDS011;27709;52.036;5.906;2023-10-08T04:30:45;11.70;;;3.95;;
42030;SDS011;27709;52.036;5.906;2023-10-08T04:33:12;11.43;;;3.55;;
42030;SDS011;27709;52.036;5.906;2023-10-08T04:35:39;12.60;;;3.55;;
42030;SDS011;27709;52.036;5.906;2023-10-08T04:38:16;9.70;;;3.42;;
42030;SDS011;27709;52.036;5.906;2023-10-08T04:40:47;11.73;;;3.40;;
42030;SDS011;27709;52.036;5.906;2023-10-08T04:43:20;6.72;;;2.85;;
42030;SDS011;27709;52.036;5.906;2023-10-08T04:45:52;11.13;;;3.65;;
42030;SDS011;27709;52.036;5.906;2023-10-08T04:48:19;8.57;;;3.40;;
42030;SDS011;27709;52.036;5.906;2023-10-08T04:50:55;10.15;;;3.72;;
42030;SDS011;27709;52.036;5.906;2023-10-08T04:53:30;8.35;;;2.83;;
42030;SDS011;27709;52.036;5.906;2023-10-08T04:56:06;12.23;;;3.67;;
42030;SDS011;27709;52.036;5.906;2023-10-08T04:58:38;6.28;;;2.60;;
42030;SDS011;27709;52.036;5.906;2023-10-08T05:01:06;7.95;;;2.97;;
42030;SDS011;27709;52.036;5.906;2023-10-08T05:03:51;12.23;;;3.17;;
42030;SDS011;27709;52.036;5.906;2023-10-08T05:06:20;7.88;;;3.65;;
42030;SDS011;27709;52.036;5.906;2023-10-08T05:11:43;11.75;;;3.25;;
42030;SDS011;27709;52.036;5.906;2023-10-08T05:14:31;9.95;;;3.15;;
42030;SDS011;27709;52.036;5.906;2023-10-08T05:17:05;11.82;;;3.40;;
42030;SDS011;27709;52.036;5.906;2023-10-08T05:19:41;9.45;;;3.42;;
42030;SDS011;27709;52.036;5.906;2023-10-08T05:22:12;10.20;;;3.20;;
42030;SDS011;27709;52.036;5.906;2023-10-08T05:24:46;7.60;;;2.67;;
42030;SDS011;27709;52.036;5.906;2023-10-08T05:27:37;11.40;;;3.13;;
42030;SDS011;27709;52.036;5.906;2023-10-08T05:30:13;9.13;;;3.00;;
42030;SDS011;27709;52.036;5.906;2023-10-08T05:33:02;9.63;;;2.88;;
42030;SDS011;27709;52.036;5.906;2023-10-08T05:35:29;7.97;;;2.88;;
42030;SDS011;27709;52.036;5.906;2023-10-08T05:38:03;6.93;;;2.80;;
42030;SDS011;27709;52.036;5.906;2023-10-08T05:43:25;8.18;;;2.70;;
42030;SDS011;27709;52.036;5.906;2023-10-08T05:46:06;7.57;;;3.10;;
42030;SDS011;27709;52.036;5.906;2023-10-08T05:48:50;8.13;;;2.38;;
42030;SDS011;27709;52.036;5.906;2023-10-08T05:51:32;9.50;;;2.40;;
42030;SDS011;27709;52.036;5.906;2023-10-08T05:54:14;7.45;;;2.17;;
42030;SDS011;27709;52.036;5.906;2023-10-08T05:56:53;8.88;;;2.63;;
42030;SDS011;27709;52.036;5.906;2023-10-08T05:59:31;7.30;;;2.25;;
42030;SDS011;27709;52.036;5.906;2023-10-08T06:02:05;3.35;;;1.77;;
42030;SDS011;27709;52.036;5.906;2023-10-08T06:04:51;7.22;;;2.08;;
42030;SDS011;27709;52.036;5.906;2023-10-08T06:07:34;5.55;;;2.20;;
42030;SDS011;27709;52.036;5.906;2023-10-08T06:10:30;6.38;;;1.70;;
42030;SDS011;27709;52.036;5.906;2023-10-08T06:15:38;5.60;;;1.77;;
42030;SDS011;27709;52.036;5.906;2023-10-08T06:18:24;6.32;;;1.58;;
42030;SDS011;27709;52.036;5.906;2023-10-08T06:20:53;6.88;;;1.90;;
42030;SDS011;27709;52.036;5.906;2023-10-08T06:23:19;5.38;;;1.73;;
42030;SDS011;27709;52.036;5.906;2023-10-08T06:25:48;6.57;;;1.90;;
42030;SDS011;27709;52.036;5.906;2023-10-08T06:28:24;4.82;;;1.75;;
42030;SDS011;27709;52.036;5.906;2023-10-08T06:31:20;4.68;;;1.63;;
42030;SDS011;27709;52.036;5.906;2023-10-08T06:33:52;5.47;;;1.48;;
42030;SDS011;27709;52.036;5.906;2023-10-08T06:36:17;5.97;;;1.83;;
42030;SDS011;27709;52.036;5.906;2023-10-08T06:38:49;4.90;;;1.85;;
42030;SDS011;27709;52.036;5.906;2023-10-08T06:41:15;6.18;;;2.45;;
42030;SDS011;27709;52.036;5.906;2023-10-08T06:43:46;4.60;;;2.50;;
42030;SDS011;27709;52.036;5.906;2023-10-08T06:46:27;6.50;;;2.75;;
42030;SDS011;27709;52.036;5.906;2023-10-08T06:48:57;5.25;;;2.10;;
42030;SDS011;27709;52.036;5.906;2023-10-08T06:51:23;4.78;;;2.38;;
42030;SDS011;27709;52.036;5.906;2023-10-08T06:53:51;4.97;;;2.10;;
42030;SDS011;27709;52.036;5.906;2023-10-08T06:56:16;4.45;;;2.05;;
42030;SDS011;27709;52.036;5.906;2023-10-08T06:58:45;4.97;;;2.45;;
42030;SDS011;27709;52.036;5.906;2023-10-08T07:01:17;7.53;;;3.80;;
42030;SDS011;27709;52.036;5.906;2023-10-08T07:03:49;6.43;;;3.30;;
42030;SDS011;27709;52.036;5.906;2023-10-08T07:06:15;7.20;;;3.80;;
42030;SDS011;27709;52.036;5.906;2023-10-08T07:08:42;8.25;;;4.38;;
42030;SDS011;27709;52.036;5.906;2023-10-08T07:11:11;7.55;;;4.03;;
42030;SDS011;27709;52.036;5.906;2023-10-08T07:13:38;6.82;;;4.10;;
42030;SDS011;27709;52.036;5.906;2023-10-08T07:16:07;6.78;;;4.25;;
42030;SDS011;27709;52.036;5.906;2023-10-08T07:18:36;6.55;;;4.20;;
42030;SDS011;27709;52.036;5.906;2023-10-08T07:21:02;7.88;;;4.18;;
42030;SDS011;27709;52.036;5.906;2023-10-08T07:23:29;5.43;;;3.85;;
42030;SDS011;27709;52.036;5.906;2023-10-08T07:26:00;5.80;;;3.55;;
42030;SDS011;27709;52.036;5.906;2023-10-08T07:28:44;6.07;;;3.80;;
42030;SDS011;27709;52.036;5.906;2023-10-08T07:31:14;7.03;;;3.55;;
42030;SDS011;27709;52.036;5.906;2023-10-08T07:33:40;6.90;;;3.85;;
42030;SDS011;27709;52.036;5.906;2023-10-08T07:36:08;4.75;;;3.10;;
42030;SDS011;27709;52.036;5.906;2023-10-08T07:38:39;4.97;;;2.88;;
42030;SDS011;27709;52.036;5.906;2023-10-08T07:41:08;4.68;;;2.95;;
42030;SDS011;27709;52.036;5.906;2023-10-08T07:43:37;5.68;;;3.03;;
42030;SDS011;27709;52.036;5.906;2023-10-08T07:46:07;5.82;;;2.95;;
42030;SDS011;27709;52.036;5.906;2023-10-08T07:48:32;5.28;;;3.10;;
42030;SDS011;27709;52.036;5.906;2023-10-08T07:50:58;4.72;;;2.55;;
42030;SDS011;27709;52.036;5.906;2023-10-08T07:53:24;3.60;;;2.50;;
42030;SDS011;27709;52.036;5.906;2023-10-08T07:55:50;4.22;;;2.72;;
42030;SDS011;27709;52.036;5.906;2023-10-08T07:58:17;4.70;;;2.70;;
42030;SDS011;27709;52.036;5.906;2023-10-08T08:00:43;4.68;;;2.97;;
42030;SDS011;27709;52.036;5.906;2023-10-08T08:03:19;5.28;;;3.03;;
42030;SDS011;27709;52.036;5.906;2023-10-08T08:05:45;4.97;;;2.90;;
42030;SDS011;27709;52.036;5.906;2023-10-08T08:08:12;4.28;;;2.90;;
42030;SDS011;27709;52.036;5.906;2023-10-08T08:10:42;5.82;;;3.40;;
42030;SDS011;27709;52.036;5.906;2023-10-08T08:13:10;5.20;;;3.58;;
42030;SDS011;27709;52.036;5.906;2023-10-08T08:15:36;6.40;;;3.83;;
42030;SDS011;27709;52.036;5.906;2023-10-08T08:18:15;6.60;;;4.22;;
42030;SDS011;27709;52.036;5.906;2023-10-08T08:20:47;6.35;;;4.05;;
42030;SDS011;27709;52.036;5.906;2023-10-08T08:23:13;7.95;;;4.72;;
42030;SDS011;27709;52.036;5.906;2023-10-08T08:25:39;6.22;;;3.83;;
42030;SDS011;27709;52.036;5.906;2023-10-08T08:28:20;7.72;;;4.43;;
42030;SDS011;27709;52.036;5.906;2023-10-08T08:30:49;8.80;;;4.78;;
42030;SDS011;27709;52.036;5.906;2023-10-08T08:33:17;7.97;;;4.45;;
42030;SDS011;27709;52.036;5.906;2023-10-08T08:35:57;8.75;;;5.60;;
42030;SDS011;27709;52.036;5.906;2023-10-08T08:38:24;8.43;;;5.35;;
42030;SDS011;27709;52.036;5.906;2023-10-08T08:40:50;8.02;;;5.50;;
42030;SDS011;27709;52.036;5.906;2023-10-08T08:43:16;8.75;;;5.78;;
42030;SDS011;27709;52.036;5.906;2023-10-08T08:45:46;8.60;;;5.40;;
42030;SDS011;27709;52.036;5.906;2023-10-08T08:48:14;7.38;;;4.97;;
42030;SDS011;27709;52.036;5.906;2023-10-08T08:50:46;9.55;;;6.15;;
42030;SDS011;27709;52.036;5.906;2023-10-08T08:53:15;7.15;;;4.93;;
42030;SDS011;27709;52.036;5.906;2023-10-08T08:55:41;8.07;;;5.28;;
42030;SDS011;27709;52.036;5.906;2023-10-08T08:58:08;9.50;;;6.10;;
42030;SDS011;27709;52.036;5.906;2023-10-08T09:00:36;9.98;;;6.07;;
42030;SDS011;27709;52.036;5.906;2023-10-08T09:03:04;9.02;;;5.50;;
42030;SDS011;27709;52.036;5.906;2023-10-08T09:05:32;8.60;;;4.97;;
42030;SDS011;27709;52.036;5.906;2023-10-08T09:08:02;10.00;;;5.05;;
42030;SDS011;27709;52.036;5.906;2023-10-08T09:10:34;6.85;;;4.05;;
42030;SDS011;27709;52.036;5.906;2023-10-08T09:13:18;7.47;;;3.28;;
42030;SDS011;27709;52.036;5.906;2023-10-08T09:15:48;7.72;;;3.38;;
42030;SDS011;27709;52.036;5.906;2023-10-08T09:18:14;5.90;;;2.75;;
42030;SDS011;27709;52.036;5.906;2023-10-08T09:20:40;6.32;;;2.88;;
42030;SDS011;27709;52.036;5.906;2023-10-08T09:23:10;6.85;;;2.58;;
42030;SDS011;27709;52.036;5.906;2023-10-08T09:25:40;5.07;;;2.50;;
42030;SDS011;27709;52.036;5.906;2023-10-08T09:28:06;4.30;;;2.53;;
42030;SDS011;27709;52.036;5.906;2023-10-08T09:30:38;4.88;;;2.55;;
42030;SDS011;27709;52.036;5.906;2023-10-08T09:33:09;5.22;;;2.50;;
42030;SDS011;27709;52.036;5.906;2023-10-08T09:35:37;5.57;;;2.40;;
42030;SDS011;27709;52.036;5.906;2023-10-08T09:38:04;4.82;;;2.00;;
42030;SDS011;27709;52.036;5.906;2023-10-08T09:40:34;3.63;;;2.08;;
42030;SDS011;27709;52.036;5.906;2023-10-08T09:43:03;5.65;;;2.28;;
42030;SDS011;27709;52.036;5.906;2023-10-08T09:45:29;7.20;;;2.45;;
42030;SDS011;27709;52.036;5.906;2023-10-08T09:47:56;5.00;;;1.80;;
42030;SDS011;27709;52.036;5.906;2023-10-08T09:50:28;4.38;;;1.88;;
42030;SDS011;27709;52.036;5.906;2023-10-08T09:55:44;4.07;;;1.70;;
42030;SDS011;27709;52.036;5.906;2023-10-08T09:58:30;4.03;;;1.90;;
42030;SDS011;27709;52.036;5.906;2023-10-08T10:00:56;5.65;;;2.22;;
42030;SDS011;27709;52.036;5.906;2023-10-08T10:03:22;5.82;;;2.13;;
42030;SDS011;27709;52.036;5.906;2023-10-08T10:05:51;4.97;;;2.42;;
42030;SDS011;27709;52.036;5.906;2023-10-08T10:08:17;5.13;;;2.30;;
42030;SDS011;27709;52.036;5.906;2023-10-08T10:10:43;4.22;;;2.13;;
42030;SDS011;27709;52.036;5.906;2023-10-08T10:13:12;4.65;;;2.28;;
42030;SDS011;27709;52.036;5.906;2023-10-08T10:15:41;3.80;;;2.00;;
42030;SDS011;27709;52.036;5.906;2023-10-08T10:18:08;3.88;;;1.60;;
42030;SDS011;27709;52.036;5.906;2023-10-08T10:20:45;4.45;;;1.83;;
42030;SDS011;27709;52.036;5.906;2023-10-08T10:26:04;3.00;;;1.17;;
42030;SDS011;27709;52.036;5.906;2023-10-08T10:29:17;3.97;;;1.63;;
42030;SDS011;27709;52.036;5.906;2023-10-08T10:31:46;5.00;;;1.45;;
42030;SDS011;27709;52.036;5.906;2023-10-08T10:34:27;3.28;;;1.20;;
42030;SDS011;27709;52.036;5.906;2023-10-08T10:36:58;2.95;;;1.33;;
42030;SDS011;27709;52.036;5.906;2023-10-08T10:39:34;3.83;;;1.27;;
42030;SDS011;27709;52.036;5.906;2023-10-08T10:42:05;3.22;;;1.10;;
42030;SDS011;27709;52.036;5.906;2023-10-08T10:44:45;4.10;;;1.23;;
42030;SDS011;27709;52.036;5.906;2023-10-08T10:47:15;2.95;;;1.10;;
42030;SDS011;27709;52.036;5.906;2023-10-08T10:49:43;2.50;;;0.75;;
42030;SDS011;27709;52.036;5.906;2023-10-08T10:52:16;4.45;;;1.10;;
42030;SDS011;27709;52.036;5.906;2023-10-08T10:54:56;3.75;;;1.00;;
42030;SDS011;27709;52.036;5.906;2023-10-08T10:57:25;3.80;;;0.95;;
42030;SDS011;27709;52.036;5.906;2023-10-08T11:00:03;2.67;;;0.90;;
42030;SDS011;27709;52.036;5.906;2023-10-08T11:02:49;4.13;;;0.80;;
42030;SDS011;27709;52.036;5.906;2023-10-08T11:05:15;3.17;;;0.88;;
42030;SDS011;27709;52.036;5.906;2023-10-08T11:07:45;2.63;;;0.60;;
42030;SDS011;27709;52.036;5.906;2023-10-08T11:10:13;3.50;;;0.90;;
42030;SDS011;27709;52.036;5.906;2023-10-08T11:12:41;5.47;;;1.00;;
42030;SDS011;27709;52.036;5.906;2023-10-08T11:15:17;2.30;;;0.60;;
42030;SDS011;27709;52.036;5.906;2023-10-08T11:17:44;1.77;;;0.50;;
42030;SDS011;27709;52.036;5.906;2023-10-08T11:20:27;2.47;;;0.50;;
42030;SDS011;27709;52.036;5.906;2023-10-08T11:22:54;3.40;;;0.60;;
42030;SDS011;27709;52.036;5.906;2023-10-08T11:25:20;3.03;;;0.60;;
42030;SDS011;27709;52.036;5.906;2023-10-08T11:27:50;3.80;;;0.73;;
42030;SDS011;27709;52.036;5.906;2023-10-08T11:30:23;4.72;;;0.50;;
42030;SDS011;27709;52.036;5.906;2023-10-08T11:32:49;2.58;;;0.63;;
42030;SDS011;27709;52.036;5.906;2023-10-08T11:35:15;2.95;;;0.50;;
42030;SDS011;27709;52.036;5.906;2023-10-08T11:37:45;2.35;;;0.68;;
42030;SDS011;27709;52.036;5.906;2023-10-08T11:40:23;1.48;;;0.30;;
42030;SDS011;27709;52.036;5.906;2023-10-08T11:42:53;3.17;;;0.60;;
42030;SDS011;27709;52.036;5.906;2023-10-08T11:45:22;2.50;;;0.50;;
42030;SDS011;27709;52.036;5.906;2023-10-08T11:47:52;2.78;;;0.50;;
42030;SDS011;27709;52.036;5.906;2023-10-08T11:50:27;3.60;;;0.60;;
42030;SDS011;27709;52.036;5.906;2023-10-08T11:52:57;2.13;;;0.50;;
42030;SDS011;27709;52.036;5.906;2023-10-08T11:55:30;3.08;;;0.57;;
42030;SDS011;27709;52.036;5.906;2023-10-08T11:58:07;2.40;;;0.50;;
42030;SDS011;27709;52.036;5.906;2023-10-08T12:00:38;1.45;;;0.38;;
42030;SDS011;27709;52.036;5.906;2023-10-08T12:03:11;3.25;;;0.60;;
42030;SDS011;27709;52.036;5.906;2023-10-08T12:05:41;2.55;;;0.50;;
42030;SDS011;27709;52.036;5.906;2023-10-08T12:08:12;3.03;;;0.70;;
42030;SDS011;27709;52.036;5.906;2023-10-08T12:10:41;4.05;;;0.60;;
42030;SDS011;27709;52.036;5.906;2023-10-08T12:13:13;3.03;;;0.60;;
42030;SDS011;27709;52.036;5.906;2023-10-08T12:15:41;3.25;;;0.80;;
42030;SDS011;27709;52.036;5.906;2023-10-08T12:18:09;2.95;;;0.80;;
42030;SDS011;27709;52.036;5.906;2023-10-08T12:20:49;2.75;;;0.88;;
42030;SDS011;27709;52.036;5.906;2023-10-08T12:23:15;3.38;;;0.80;;
42030;SDS011;27709;52.036;5.906;2023-10-08T12:25:51;2.60;;;0.90;;
42030;SDS011;27709;52.036;5.906;2023-10-08T12:28:20;4.32;;;1.00;;
42030;SDS011;27709;52.036;5.906;2023-10-08T12:30:49;3.17;;;1.10;;
42030;SDS011;27709;52.036;5.906;2023-10-08T12:33:17;2.67;;;1.10;;
42030;SDS011;27709;52.036;5.906;2023-10-08T12:35:44;3.42;;;1.00;;
42030;SDS011;27709;52.036;5.906;2023-10-08T12:38:12;3.28;;;0.90;;
42030;SDS011;27709;52.036;5.906;2023-10-08T12:40:39;3.60;;;1.10;;
42030;SDS011;27709;52.036;5.906;2023-10-08T12:43:12;2.67;;;1.20;;
42030;SDS011;27709;52.036;5.906;2023-10-08T12:45:45;3.20;;;1.20;;
42030;SDS011;27709;52.036;5.906;2023-10-08T12:48:17;4.20;;;1.42;;
42030;SDS011;27709;52.036;5.906;2023-10-08T12:50:47;2.60;;;1.48;;
42030;SDS011;27709;52.036;5.906;2023-10-08T12:53:19;3.20;;;1.42;;
42030;SDS011;27709;52.036;5.906;2023-10-08T12:55:48;2.65;;;1.20;;
42030;SDS011;27709;52.036;5.906;2023-10-08T12:58:18;2.83;;;1.33;;
42030;SDS011;27709;52.036;5.906;2023-10-08T13:00:50;3.00;;;1.63;;
42030;SDS011;27709;52.036;5.906;2023-10-08T13:03:25;3.58;;;1.23;;
42030;SDS011;27709;52.036;5.906;2023-10-08T13:05:55;2.33;;;1.08;;
42030;SDS011;27709;52.036;5.906;2023-10-08T13:08:28;2.95;;;1.08;;
42030;SDS011;27709;52.036;5.906;2023-10-08T13:10:55;2.40;;;1.00;;
42030;SDS011;27709;52.036;5.906;2023-10-08T13:13:25;2.38;;;1.00;;
42030;SDS011;27709;52.036;5.906;2023-10-08T13:15:55;2.47;;;1.13;;
42030;SDS011;27709;52.036;5.906;2023-10-08T13:18:25;1.67;;;0.77;;
42030;SDS011;27709;52.036;5.906;2023-10-08T13:20:51;3.72;;;1.40;;
42030;SDS011;27709;52.036;5.906;2023-10-08T13:23:17;2.47;;;1.00;;
42030;SDS011;27709;52.036;5.906;2023-10-08T13:25:48;2.05;;;1.00;;
42030;SDS011;27709;52.036;5.906;2023-10-08T13:28:21;2.00;;;1.10;;
42030;SDS011;27709;52.036;5.906;2023-10-08T13:30:47;2.72;;;1.15;;
42030;SDS011;27709;52.036;5.906;2023-10-08T13:33:17;3.33;;;1.60;;
42030;SDS011;27709;52.036;5.906;2023-10-08T13:35:46;2.53;;;1.38;;
42030;SDS011;27709;52.036;5.906;2023-10-08T13:38:14;4.00;;;1.65;;
42030;SDS011;27709;52.036;5.906;2023-10-08T13:40:48;3.10;;;1.80;;
42030;SDS011;27709;52.036;5.906;2023-10-08T13:43:32;5.18;;;2.42;;
42030;SDS011;27709;52.036;5.906;2023-10-08T13:46:05;4.20;;;2.40;;
42030;SDS011;27709;52.036;5.906;2023-10-08T13:48:33;4.22;;;1.85;;
42030;SDS011;27709;52.036;5.906;2023-10-08T13:51:03;5.53;;;2.10;;
42030;SDS011;27709;52.036;5.906;2023-10-08T13:53:31;3.17;;;1.60;;
42030;SDS011;27709;52.036;5.906;2023-10-08T13:55:57;4.78;;;1.60;;
42030;SDS011;27709;52.036;5.906;2023-10-08T13:58:27;2.92;;;1.50;;
42030;SDS011;27709;52.036;5.906;2023-10-08T14:00:56;1.65;;;1.23;;
42030;SDS011;27709;52.036;5.906;2023-10-08T14:03:25;2.95;;;1.50;;
42030;SDS011;27709;52.036;5.906;2023-10-08T14:05:52;2.25;;;1.55;;
42030;SDS011;27709;52.036;5.906;2023-10-08T14:08:18;5.15;;;1.50;;
42030;SDS011;27709;52.036;5.906;2023-10-08T14:10:44;2.88;;;1.50;;
42030;SDS011;27709;52.036;5.906;2023-10-08T14:13:10;2.13;;;1.27;;
42030;SDS011;27709;52.036;5.906;2023-10-08T14:15:36;2.83;;;1.52;;
42030;SDS011;27709;52.036;5.906;2023-10-08T14:18:09;2.70;;;1.50;;
42030;SDS011;27709;52.036;5.906;2023-10-08T14:20:38;4.05;;;1.25;;
42030;SDS011;27709;52.036;5.906;2023-10-08T14:23:05;2.55;;;1.30;;
42030;SDS011;27709;52.036;5.906;2023-10-08T14:25:31;2.97;;;1.23;;
42030;SDS011;27709;52.036;5.906;2023-10-08T14:27:58;1.70;;;0.90;;
42030;SDS011;27709;52.036;5.906;2023-10-08T14:30:29;1.88;;;1.02;;
42030;SDS011;27709;52.036;5.906;2023-10-08T14:33:05;2.17;;;1.20;;
42030;SDS011;27709;52.036;5.906;2023-10-08T14:35:34;2.15;;;1.30;;
42030;SDS011;27709;52.036;5.906;2023-10-08T14:38:18;3.90;;;1.50;;
42030;SDS011;27709;52.036;5.906;2023-10-08T14:41:02;4.18;;;1.27;;
42030;SDS011;27709;52.036;5.906;2023-10-08T14:43:47;4.28;;;1.52;;
42030;SDS011;27709;52.036;5.906;2023-10-08T14:46:13;3.75;;;1.70;;
42030;SDS011;27709;52.036;5.906;2023-10-08T14:48:40;4.15;;;1.35;;
42030;SDS011;27709;52.036;5.906;2023-10-08T14:51:05;3.17;;;1.30;;
42030;SDS011;27709;52.036;5.906;2023-10-08T14:53:32;3.80;;;1.58;;
42030;SDS011;27709;52.036;5.906;2023-10-08T14:55:59;4.40;;;1.42;;
42030;SDS011;27709;52.036;5.906;2023-10-08T14:58:28;4.30;;;1.52;;
42030;SDS011;27709;52.036;5.906;2023-10-08T15:00:54;4.20;;;1.52;;
42030;SDS011;27709;52.036;5.906;2023-10-08T15:03:20;3.10;;;1.40;;
42030;SDS011;27709;52.036;5.906;2023-10-08T15:05:46;3.83;;;1.42;;
42030;SDS011;27709;52.036;5.906;2023-10-08T15:08:12;3.58;;;1.50;;
42030;SDS011;27709;52.036;5.906;2023-10-08T15:10:39;2.50;;;1.38;;
42030;SDS011;27709;52.036;5.906;2023-10-08T15:13:06;3.75;;;1.73;;
42030;SDS011;27709;52.036;5.906;2023-10-08T15:15:32;3.40;;;1.48;;
42030;SDS011;27709;52.036;5.906;2023-10-08T15:17:59;4.20;;;1.40;;
42030;SDS011;27709;52.036;5.906;2023-10-08T15:20:27;3.17;;;1.48;;